Time;durP1;ratioP1;P1;durP2;ratioP2;P2;SDS_P1;SDS_P2;PMS_P1;PMS_P2;Temp;Humidity;BMP_temperature;BMP_pressure;BME280_temperature;BME280_humidity;BME280_pressure;Samples;Min_cycle;Max_cycle;Signal;HPM_P1;HPM_P2
2021/12/19 00:52:34;;;;;;;13.13;5.18;;;2.70;72.90;;;;;;3372947;28;22064;-30
2021/12/19 00:55:00;;;;;;;20.17;7.32;;;2.60;73.10;;;;;;5014121;28;20049;-26
2021/12/19 00:57:26;;;;;;;5.32;3.00;;;2.60;72.80;;;;;;5014117;28;20018;-26
2021/12/19 00:59:52;;;;;;;8.77;4.93;;;2.60;72.70;;;;;;5014385;28;20025;-25
2021/12/19 01:02:18;;;;;;;36.78;11.77;;;2.50;72.90;;;;;;5013943;28;20101;-25
2021/12/19 01:04:44;;;;;;;6.03;3.63;;;2.50;72.90;;;;;;5014364;28;20096;-26
2021/12/19 01:07:10;;;;;;;17.27;9.23;;;2.50;72.90;;;;;;5012673;28;20030;-25
2021/12/19 01:09:36;;;;;;;17.00;7.32;;;2.40;73.00;;;;;;5013917;28;20022;-26
2021/12/19 01:12:04;;;;;;;5.88;3.10;;;2.40;73.10;;;;;;5012590;28;20026;-26
2021/12/19 01:14:30;;;;;;;19.48;6.28;;;2.40;73.10;;;;;;5013973;28;20029;-26
2021/12/19 01:16:56;;;;;;;6.78;3.80;;;2.40;73.40;;;;;;5013738;28;20033;-25
2021/12/19 01:19:24;;;;;;;5.60;3.63;;;2.40;73.10;;;;;;5014056;28;20026;-26
2021/12/19 01:21:50;;;;;;;19.67;8.98;;;2.40;73.50;;;;;;5014339;28;20425;-26
2021/12/19 01:24:16;;;;;;;14.55;6.53;;;2.30;73.30;;;;;;5013476;28;20069;-27
2021/12/19 01:26:42;;;;;;;45.38;12.27;;;2.30;73.30;;;;;;5013891;28;20030;-25
2021/12/19 01:29:13;;;;;;;25.33;9.45;;;2.30;73.80;;;;;;5014234;28;20022;-25
2021/12/19 01:31:39;;;;;;;48.40;15.15;;;2.20;73.70;;;;;;5013596;28;20060;-27
2021/12/19 01:34:05;;;;;;;14.77;6.82;;;2.20;74.10;;;;;;5013732;28;20022;-24
2021/12/19 01:36:31;;;;;;;8.05;4.70;;;2.20;73.90;;;;;;5013361;28;20029;-26
2021/12/19 01:38:57;;;;;;;12.00;7.30;;;2.20;73.70;;;;;;5013572;28;20014;-26
2021/12/19 01:41:23;;;;;;;11.25;7.10;;;2.20;73.70;;;;;;5013399;28;20033;-26
2021/12/19 01:43:49;;;;;;;19.10;8.63;;;2.20;73.80;;;;;;5013408;28;20025;-26
2021/12/19 01:46:15;;;;;;;6.72;4.38;;;2.20;73.80;;;;;;5013427;28;20080;-26
2021/12/19 01:48:41;;;;;;;23.42;7.53;;;2.20;74.20;;;;;;5013397;28;20037;-25
2021/12/19 01:51:07;;;;;;;14.95;6.82;;;2.20;73.90;;;;;;5013276;28;20026;-26
2021/12/19 01:53:33;;;;;;;27.80;9.82;;;2.20;73.90;;;;;;5022935;28;20115;-25
2021/12/19 01:56:03;;;;;;;31.90;12.15;;;2.20;74.40;;;;;;5033365;28;20049;-26
2021/12/19 01:58:30;;;;;;;26.02;8.70;;;2.20;74.20;;;;;;5032750;28;20041;-25
2021/12/19 02:00:58;;;;;;;24.27;10.23;;;2.30;74.10;;;;;;5033252;28;20481;-25
2021/12/19 02:03:25;;;;;;;22.67;10.07;;;2.30;74.40;;;;;;5033258;28;20044;-26
2021/12/19 02:05:51;;;;;;;14.88;8.82;;;2.40;74.20;;;;;;5032898;28;20025;-26
2021/12/19 02:08:18;;;;;;;37.40;10.65;;;2.40;73.90;;;;;;5032723;28;20065;-27
2021/12/19 02:10:46;;;;;;;12.18;6.25;;;2.40;74.00;;;;;;5031680;28;20029;-26
2021/12/19 02:13:14;;;;;;;28.90;11.35;;;2.50;73.70;;;;;;5032844;28;20034;-25
2021/12/19 02:15:42;;;;;;;12.45;6.10;;;2.50;74.10;;;;;;5033407;28;20038;-25
2021/12/19 02:18:18;;;;;;;27.77;9.57;;;2.60;73.90;;;;;;5033124;28;20113;-26
2021/12/19 02:20:53;;;;;;;28.92;8.80;;;2.60;73.60;;;;;;5033059;28;20032;-25
2021/12/19 02:23:21;;;;;;;22.92;10.48;;;2.60;73.50;;;;;;5033091;28;20087;-24
2021/12/19 02:25:48;;;;;;;21.88;8.48;;;2.60;73.50;;;;;;5032947;28;20041;-25
2021/12/19 02:28:14;;;;;;;20.90;8.40;;;2.60;73.70;;;;;;5032722;28;20101;-26
2021/12/19 02:30:41;;;;;;;28.42;9.90;;;2.60;73.70;;;;;;5031388;28;20029;-26
2021/12/19 02:33:15;;;;;;;23.83;9.38;;;2.50;73.90;;;;;;5032998;28;20022;-26
2021/12/19 02:35:47;;;;;;;48.60;13.38;;;2.50;73.20;;;;;;5032630;28;20068;-25
2021/12/19 02:39:17;;;;;;;13.90;6.65;;;2.50;73.20;;;;;;5033056;28;20026;-25
2021/12/19 02:48:10;;;;;;;23.07;8.27;;;2.50;73.50;;;;;;5032517;28;20072;-26
2021/12/19 02:49:49;;;;;;;22.15;9.27;;;2.40;74.70;;;;;;5010711;28;20045;-25
2021/12/19 02:52:19;;;;;;;13.18;6.65;;;2.40;73.80;;;;;;5029646;28;20088;-26
2021/12/19 02:54:45;;;;;;;21.00;7.22;;;2.30;73.70;;;;;;5035947;28;20045;-25
2021/12/19 02:57:11;;;;;;;14.35;6.60;;;2.30;73.90;;;;;;5035770;28;20045;-25
2021/12/19 02:59:38;;;;;;;34.20;9.68;;;2.20;74.00;;;;;;5036396;28;20021;-26
2021/12/19 03:02:04;;;;;;;34.00;9.60;;;2.20;74.40;;;;;;5036005;28;20112;-25
2021/12/19 03:04:30;;;;;;;28.35;10.07;;;2.10;74.60;;;;;;5035981;28;20021;-26
2021/12/19 03:06:56;;;;;;;29.00;9.75;;;2.10;74.90;;;;;;5035863;28;20397;-26
2021/12/19 03:09:46;;;;;;;33.70;10.18;;;2.10;74.60;;;;;;5036671;28;20038;-25
2021/12/19 03:20:16;;;;;;;25.33;9.23;;;1.90;74.90;;;;;;5035731;28;20064;-26
2021/12/19 03:22:42;;;;;;;43.90;12.00;;;1.90;75.20;;;;;;5035911;28;20025;-25
2021/12/19 03:25:08;;;;;;;25.58;8.13;;;1.90;75.90;;;;;;5035626;28;20393;-25
2021/12/19 03:27:34;;;;;;;8.18;4.32;;;1.90;75.30;;;;;;5035506;28;20053;-24
2021/12/19 03:30:01;;;;;;;7.03;4.00;;;1.90;75.10;;;;;;5035523;28;20068;-25
2021/12/19 03:32:27;;;;;;;35.25;10.73;;;2.00;75.00;;;;;;5035319;28;20028;-26
2021/12/19 03:34:54;;;;;;;19.30;8.05;;;2.10;75.10;;;;;;5035631;28;20030;-26
2021/12/19 03:37:20;;;;;;;39.50;10.85;;;2.10;75.60;;;;;;5035617;28;20439;-26
2021/12/19 03:39:57;;;;;;;31.55;11.30;;;2.10;75.20;;;;;;5035512;28;20105;-26
2021/12/19 03:42:26;;;;;;;6.68;3.53;;;2.20;76.10;;;;;;5035472;28;20060;-26
2021/12/19 03:44:53;;;;;;;9.73;4.95;;;2.20;75.20;;;;;;5034029;28;20497;-26
2021/12/19 03:47:19;;;;;;;10.90;4.40;;;2.20;75.20;;;;;;5035105;28;20087;-24
2021/12/19 03:49:46;;;;;;;14.13;6.40;;;2.20;74.70;;;;;;5035317;28;20059;-26
2021/12/19 03:52:13;;;;;;;14.63;5.45;;;2.30;74.50;;;;;;5034954;28;20029;-26
2021/12/19 03:54:39;;;;;;;15.18;6.35;;;2.30;74.30;;;;;;5034867;28;20168;-24
2021/12/19 03:57:05;;;;;;;11.82;6.22;;;2.30;74.30;;;;;;5035103;28;20051;-25
2021/12/19 03:59:31;;;;;;;14.52;8.45;;;2.30;74.20;;;;;;5035024;28;20022;-25
2021/12/19 04:01:58;;;;;;;52.25;14.13;;;2.30;74.20;;;;;;5034912;28;20176;-25
2021/12/19 04:04:23;;;;;;;18.48;7.90;;;2.30;75.00;;;;;;5034479;28;20501;-24
2021/12/19 04:06:49;;;;;;;21.30;9.10;;;2.20;74.60;;;;;;5033531;28;20123;-25
2021/12/19 04:09:15;;;;;;;23.30;9.75;;;2.20;74.60;;;;;;5034766;28;20033;-25
2021/12/19 04:11:42;;;;;;;55.17;16.08;;;2.20;74.90;;;;;;5034741;28;20029;-25
2021/12/19 04:14:08;;;;;;;6.72;3.83;;;2.10;75.70;;;;;;5035312;28;20027;-25
2021/12/19 04:16:33;;;;;;;20.92;8.15;;;2.10;75.20;;;;;;5034403;28;20025;-25
2021/12/19 04:19:00;;;;;;;6.68;4.00;;;2.10;75.20;;;;;;5034658;28;20032;-25
2021/12/19 04:21:26;;;;;;;8.07;4.70;;;2.10;74.70;;;;;;5034434;28;20071;-25
2021/12/19 04:23:52;;;;;;;33.67;11.20;;;2.10;74.70;;;;;;5034469;28;20406;-25
2021/12/19 04:26:18;;;;;;;33.25;14.45;;;2.10;75.30;;;;;;5032975;28;20030;-25
2021/12/19 04:28:44;;;;;;;35.45;11.60;;;2.00;75.90;;;;;;5034409;28;20486;-26
2021/12/19 04:31:10;;;;;;;37.45;13.23;;;2.00;75.40;;;;;;5034332;28;20037;-25
2021/12/19 04:33:39;;;;;;;21.23;7.53;;;1.90;75.40;;;;;;5035163;28;20049;-25
2021/12/19 04:36:06;;;;;;;10.00;6.15;;;1.90;75.60;;;;;;5034436;28;20462;-26
2021/12/19 05:15:31;;;;;;;15.73;6.95;;;2.10;75.50;;;;;;5033567;28;20088;-26
2021/12/19 05:18:02;;;;;;;51.13;13.80;;;2.10;75.40;;;;;;5033803;28;20053;-24
2021/12/19 05:20:29;;;;;;;28.92;10.00;;;2.10;75.40;;;;;;5033233;28;20389;-25
2021/12/19 05:23:17;;;;;;;64.40;14.68;;;2.10;75.80;;;;;;5033438;28;20026;-25
2021/12/19 05:25:44;;;;;;;12.32;5.60;;;2.10;75.90;;;;;;5033692;28;20044;-26
2021/12/19 05:28:10;;;;;;;42.83;12.15;;;2.10;75.30;;;;;;5033490;28;20464;-25
2021/12/19 05:30:36;;;;;;;34.15;11.68;;;2.10;75.00;;;;;;5033153;28;20072;-26
2021/12/19 05:33:03;;;;;;;7.25;4.20;;;2.10;75.20;;;;;;5033563;28;20060;-26
2021/12/19 05:46:34;;;;;;;11.15;6.40;;;2.00;75.60;;;;;;5033374;28;20041;-25
2021/12/19 05:49:01;;;;;;;22.60;9.60;;;2.00;75.40;;;;;;5033736;28;20017;-24
2021/12/19 05:51:27;;;;;;;22.45;8.43;;;1.90;75.50;;;;;;5032997;28;20037;-25
2021/12/19 05:53:53;;;;;;;17.77;7.22;;;1.90;75.30;;;;;;5032857;28;20056;-26
2021/12/19 05:56:19;;;;;;;28.40;10.02;;;1.90;75.30;;;;;;5031695;28;20018;-25
2021/12/19 05:58:45;;;;;;;29.00;8.93;;;1.90;75.40;;;;;;5031777;28;20036;-25
2021/12/19 06:01:11;;;;;;;38.08;11.10;;;1.90;75.60;;;;;;5032981;28;20064;-26
2021/12/19 06:03:37;;;;;;;43.05;12.40;;;1.90;75.40;;;;;;5033296;28;20072;-25
2021/12/19 06:06:03;;;;;;;22.10;8.18;;;1.80;75.50;;;;;;5032760;28;20466;-25
2021/12/19 06:08:29;;;;;;;10.73;5.70;;;1.80;75.40;;;;;;5031504;28;20025;-25
2021/12/19 06:10:55;;;;;;;38.20;10.63;;;1.80;75.40;;;;;;5031658;28;20022;-25
2021/12/19 06:13:21;;;;;;;17.42;8.13;;;1.80;75.80;;;;;;5033227;28;20040;-25
2021/12/19 06:15:50;;;;;;;28.95;10.70;;;1.70;75.60;;;;;;5032849;28;20021;-25
2021/12/19 06:18:16;;;;;;;27.02;10.30;;;1.80;76.10;;;;;;5032946;28;20068;-25
2021/12/19 06:20:42;;;;;;;35.30;9.90;;;1.80;76.30;;;;;;5032699;28;20025;-25
2021/12/19 06:23:09;;;;;;;45.15;13.00;;;1.80;75.90;;;;;;5033185;28;20025;-25
2021/12/19 06:25:35;;;;;;;38.40;10.63;;;1.80;76.00;;;;;;5032727;28;20060;-25
2021/12/19 06:28:02;;;;;;;46.08;13.90;;;1.80;75.90;;;;;;5036098;28;20022;-24
2021/12/19 06:30:30;;;;;;;32.30;11.73;;;1.90;75.90;;;;;;5036423;28;20030;-26
2021/12/19 06:32:56;;;;;;;17.45;8.23;;;1.90;75.80;;;;;;5036620;28;20037;-24
2021/12/19 06:35:28;;;;;;;40.45;13.07;;;1.90;75.60;;;;;;5036467;28;20559;-24
2021/12/19 06:37:54;;;;;;;13.85;6.03;;;1.90;76.10;;;;;;5036565;28;20103;-25
2021/12/19 06:40:22;;;;;;;21.02;6.72;;;2.00;75.60;;;;;;5036263;28;20037;-24
2021/12/19 06:42:49;;;;;;;13.27;6.00;;;2.00;75.50;;;;;;5036678;28;20072;-25
2021/12/19 06:45:16;;;;;;;18.17;7.90;;;2.00;75.10;;;;;;5034973;28;20478;-25
2021/12/19 06:47:42;;;;;;;42.47;13.50;;;2.10;74.90;;;;;;5036383;28;20053;-25
2021/12/19 06:50:12;;;;;;;35.28;13.80;;;2.10;74.90;;;;;;5036927;28;20030;-25
2021/12/19 06:52:40;;;;;;;15.20;7.57;;;2.10;75.00;;;;;;5035996;28;20366;-25
2021/12/19 06:55:07;;;;;;;10.50;5.65;;;2.00;74.90;;;;;;5036576;28;20049;-24
2021/12/19 06:57:33;;;;;;;21.92;9.45;;;2.10;75.30;;;;;;5036475;28;20021;-25
2021/12/19 07:00:00;;;;;;;20.85;8.63;;;2.00;75.00;;;;;;5036253;28;20072;-25
2021/12/19 07:02:26;;;;;;;31.23;12.38;;;2.00;75.30;;;;;;5035916;28;20025;-24
2021/12/19 07:04:52;;;;;;;24.42;9.32;;;2.00;75.30;;;;;;5036237;28;20495;-25
2021/12/19 07:07:20;;;;;;;45.38;14.88;;;1.90;75.50;;;;;;5035343;28;20065;-24
2021/12/19 07:09:46;;;;;;;80.22;17.88;;;1.90;75.20;;;;;;5035926;28;20032;-25
2021/12/19 07:12:11;;;;;;;57.58;16.10;;;1.90;75.50;;;;;;5035959;28;20097;-24
2021/12/19 07:14:37;;;;;;;25.10;9.73;;;1.90;75.20;;;;;;5036142;28;20021;-25
2021/12/19 07:17:03;;;;;;;28.42;10.90;;;1.80;75.30;;;;;;5036077;28;20017;-25
2021/12/19 07:19:30;;;;;;;11.32;6.07;;;1.70;75.60;;;;;;5036192;28;20052;-26
2021/12/19 07:21:55;;;;;;;16.63;6.70;;;1.70;75.60;;;;;;5035669;28;20027;-25
2021/12/19 07:24:21;;;;;;;27.88;9.85;;;1.70;75.50;;;;;;5035468;28;20033;-24
2021/12/19 07:26:47;;;;;;;33.72;11.40;;;1.70;75.60;;;;;;5035539;28;20030;-25
2021/12/19 07:29:13;;;;;;;14.95;7.53;;;1.60;75.60;;;;;;5035566;28;20025;-25
2021/12/19 07:31:39;;;;;;;24.23;10.02;;;1.60;75.40;;;;;;5035833;28;20029;-25
2021/12/19 07:34:06;;;;;;;16.90;8.32;;;1.60;75.50;;;;;;5035790;28;20390;-24
2021/12/19 07:36:41;;;;;;;13.98;7.35;;;1.60;75.50;;;;;;5035472;28;20558;-25
2021/12/19 07:39:12;;;;;;;25.17;10.02;;;1.60;75.50;;;;;;5035142;28;20021;-25
2021/12/19 07:41:39;;;;;;;26.25;11.60;;;1.60;75.90;;;;;;5035391;28;20485;-25
2021/12/19 07:44:07;;;;;;;9.70;5.28;;;1.60;76.20;;;;;;5036118;28;20025;-26
2021/12/19 07:46:33;;;;;;;30.33;10.52;;;1.70;76.10;;;;;;5035017;28;20041;-24
2021/12/19 07:48:59;;;;;;;9.50;5.25;;;1.80;75.70;;;;;;5035210;28;20021;-25
2021/12/19 07:51:25;;;;;;;12.45;7.10;;;1.80;75.50;;;;;;5035369;28;20022;-25
2021/12/19 07:53:50;;;;;;;23.80;10.27;;;1.90;75.40;;;;;;5034795;28;20575;-24
2021/12/19 07:56:16;;;;;;;19.75;8.27;;;1.90;75.10;;;;;;5034874;28;20025;-25
2021/12/19 07:58:42;;;;;;;20.25;10.60;;;2.00;75.20;;;;;;5033915;28;20025;-25
2021/12/19 08:01:08;;;;;;;16.92;8.63;;;2.00;75.00;;;;;;5035179;28;20065;-25
2021/12/19 08:03:34;;;;;;;9.48;5.93;;;2.00;75.00;;;;;;5035218;28;20036;-24
2021/12/19 08:05:59;;;;;;;52.40;16.65;;;2.10;74.80;;;;;;5035338;28;20343;-25
2021/12/19 08:08:27;;;;;;;36.05;14.35;;;2.10;75.00;;;;;;5034930;28;20112;-24
2021/12/19 08:13:52;;;;;;;15.60;8.05;;;2.10;74.70;;;;;;5012155;28;20032;-26
2021/12/19 08:16:18;;;;;;;20.25;9.50;;;2.10;74.70;;;;;;5034475;28;20022;-25
2021/12/19 08:18:44;;;;;;;29.95;12.45;;;2.10;74.60;;;;;;5034610;28;20029;-26
2021/12/19 08:21:09;;;;;;;20.52;9.85;;;2.20;74.70;;;;;;5034496;28;20033;-24
2021/12/19 08:23:36;;;;;;;16.05;8.32;;;2.10;74.50;;;;;;5034490;28;20068;-24
2021/12/19 08:26:02;;;;;;;26.77;8.73;;;2.20;74.40;;;;;;5034436;28;20033;-26
2021/12/19 08:28:28;;;;;;;11.00;5.72;;;2.20;74.40;;;;;;5035354;28;20029;-25
2021/12/19 08:30:54;;;;;;;24.95;11.57;;;2.10;74.40;;;;;;5034401;28;20056;-25
2021/12/19 08:33:21;;;;;;;21.75;9.40;;;2.20;74.30;;;;;;5034515;28;20065;-25
2021/12/19 08:35:47;;;;;;;32.92;12.43;;;2.20;74.60;;;;;;5033030;28;20025;-25
2021/12/19 08:38:13;;;;;;;30.13;13.35;;;2.20;74.30;;;;;;5034036;28;20037;-25
2021/12/19 08:40:39;;;;;;;44.42;14.38;;;2.20;74.30;;;;;;5034544;28;20048;-25
2021/12/19 08:43:06;;;;;;;60.13;17.52;;;2.20;74.30;;;;;;5034202;28;20030;-24
2021/12/19 08:45:32;;;;;;;13.27;8.18;;;2.20;74.50;;;;;;5034042;28;20026;-25
2021/12/19 08:47:58;;;;;;;8.02;4.53;;;2.10;74.80;;;;;;5034360;28;20025;-24
2021/12/19 08:50:24;;;;;;;17.15;7.95;;;2.10;74.60;;;;;;5033248;28;20025;-25
2021/12/19 08:52:52;;;;;;;12.23;7.57;;;2.10;74.80;;;;;;5033744;28;20053;-25
2021/12/19 08:55:19;;;;;;;44.13;14.13;;;2.10;74.60;;;;;;5034191;28;20148;-24
2021/12/19 08:57:45;;;;;;;23.90;9.10;;;2.10;75.10;;;;;;5033888;28;20148;-25
2021/12/19 09:00:14;;;;;;;17.65;7.30;;;2.10;74.80;;;;;;5033797;28;20033;-25
2021/12/19 09:02:43;;;;;;;12.68;8.00;;;2.10;74.70;;;;;;5033810;28;20030;-25
2021/12/19 09:05:09;;;;;;;20.65;10.70;;;2.10;74.70;;;;;;5033664;28;20026;-25
2021/12/19 09:07:36;;;;;;;48.67;16.75;;;2.10;74.90;;;;;;5033953;28;20489;-25
2021/12/19 09:10:03;;;;;;;20.80;9.40;;;2.10;75.50;;;;;;5033781;28;20041;-25
2021/12/19 09:12:29;;;;;;;32.92;13.05;;;2.10;75.30;;;;;;5033776;28;20033;-25
2021/12/19 09:14:55;;;;;;;30.75;10.93;;;2.20;75.20;;;;;;5033628;28;20517;-25
2021/12/19 09:17:21;;;;;;;39.58;14.27;;;2.20;75.30;;;;;;5033567;28;20087;-25
2021/12/19 09:19:47;;;;;;;43.65;14.55;;;2.30;75.20;;;;;;5033674;28;20457;-25
2021/12/19 09:22:13;;;;;;;23.35;10.32;;;2.30;75.20;;;;;;5033691;28;20033;-25
2021/12/19 09:24:39;;;;;;;21.73;10.40;;;2.40;75.20;;;;;;5033419;28;20029;-25
2021/12/19 09:27:07;;;;;;;11.05;6.82;;;2.50;75.10;;;;;;5033934;28;20034;-25
2021/12/19 09:29:35;;;;;;;23.90;11.63;;;2.50;74.90;;;;;;5033715;28;20065;-25
2021/12/19 09:32:02;;;;;;;24.60;10.27;;;2.60;74.90;;;;;;5032154;28;20025;-25
2021/12/19 09:34:30;;;;;;;15.38;8.00;;;2.60;74.50;;;;;;5033418;28;20111;-25
2021/12/19 09:36:57;;;;;;;20.27;10.80;;;2.70;74.50;;;;;;5032236;28;20033;-24
2021/12/19 09:39:24;;;;;;;8.32;5.13;;;2.70;74.50;;;;;;5033198;28;20061;-25
2021/12/19 09:41:56;;;;;;;25.25;10.70;;;2.70;74.40;;;;;;5033175;28;20025;-25
2021/12/19 09:44:23;;;;;;;10.23;6.18;;;2.80;74.50;;;;;;5033287;28;20037;-25
2021/12/19 09:46:51;;;;;;;10.35;6.32;;;2.80;74.30;;;;;;5033492;28;20557;-25
2021/12/19 09:49:19;;;;;;;21.15;9.63;;;2.80;74.30;;;;;;5033132;28;20034;-25
2021/12/19 09:51:47;;;;;;;19.52;10.85;;;2.80;74.80;;;;;;5033132;28;20025;-25
2021/12/19 09:54:14;;;;;;;16.20;8.43;;;2.90;74.60;;;;;;5032804;28;20052;-25
2021/12/19 09:56:42;;;;;;;22.40;9.25;;;2.90;74.60;;;;;;5033336;28;20022;-26
2021/12/19 09:59:18;;;;;;;9.48;5.03;;;2.90;74.70;;;;;;5033027;28;20025;-25
2021/12/19 10:01:45;;;;;;;21.95;10.52;;;2.90;74.50;;;;;;5036296;28;20057;-26
2021/12/19 10:04:36;;;;;;;16.92;10.10;;;3.00;74.50;;;;;;5037157;28;20079;-25
2021/12/19 10:07:10;;;;;;;68.88;22.20;;;3.00;74.40;;;;;;5036911;28;20041;-25
2021/12/19 10:10:13;;;;;;;28.77;10.82;;;3.10;74.50;;;;;;5037077;28;20025;-26
2021/12/19 10:15:19;;;;;;;14.82;8.57;;;3.20;74.40;;;;;;5015570;28;20120;-24
2021/12/19 10:17:47;;;;;;;39.72;14.13;;;3.30;74.30;;;;;;5015191;28;20037;-26
2021/12/19 10:20:16;;;;;;;36.92;14.15;;;3.30;74.50;;;;;;5015182;28;20030;-25
2021/12/19 10:22:47;;;;;;;26.05;11.00;;;3.40;74.50;;;;;;5015454;28;20049;-26
2021/12/19 10:25:23;;;;;;;13.05;7.72;;;3.50;74.50;;;;;;5014912;28;20108;-25
2021/12/19 10:27:55;;;;;;;47.65;17.42;;;3.60;74.20;;;;;;5014868;28;20038;-25
2021/12/19 10:30:26;;;;;;;27.67;12.05;;;3.60;74.50;;;;;;5014669;28;20433;-25
2021/12/19 10:32:59;;;;;;;44.20;16.42;;;3.70;74.20;;;;;;5015375;28;20481;-25
2021/12/19 10:35:30;;;;;;;51.50;14.30;;;3.70;74.20;;;;;;5015340;28;20124;-26
2021/12/19 10:37:57;;;;;;;15.57;7.68;;;3.80;74.00;;;;;;5014761;28;20362;-25
2021/12/19 10:40:25;;;;;;;19.63;9.57;;;3.90;74.00;;;;;;5014593;28;20393;-24
2021/12/19 10:42:58;;;;;;;49.47;14.95;;;3.90;74.00;;;;;;5014872;28;20117;-25
2021/12/19 10:45:42;;;;;;;24.00;12.30;;;3.90;73.80;;;;;;5014643;28;20034;-25
2021/12/19 10:48:12;;;;;;;28.60;12.93;;;3.90;73.70;;;;;;5025289;28;20041;-25
2021/12/19 10:51:08;;;;;;;37.50;12.05;;;4.00;73.90;;;;;;5036243;28;20034;-25
2021/12/19 10:53:39;;;;;;;17.85;9.02;;;4.00;73.70;;;;;;5034046;28;20095;-25
2021/12/19 10:56:12;;;;;;;17.33;8.65;;;4.10;73.70;;;;;;5036210;28;20022;-26
2021/12/19 10:58:43;;;;;;;;;;;4.10;73.70;;;;;;5037292;28;20527;-26
2021/12/19 11:01:17;;;;;;;19.95;11.00;;;4.20;74.00;;;;;;5036116;28;20373;-25
2021/12/19 11:03:57;;;;;;;22.15;11.45;;;4.10;73.70;;;;;;5036762;28;20136;-26
2021/12/19 11:06:26;;;;;;;18.95;9.60;;;4.20;73.70;;;;;;5035992;28;20026;-26
2021/12/19 11:08:54;;;;;;;14.23;7.78;;;4.20;73.60;;;;;;5035993;28;20038;-25
2021/12/19 11:11:58;;;;;;;11.05;6.20;;;4.30;73.60;;;;;;5035820;28;20363;-25
2021/12/19 11:14:30;;;;;;;20.10;8.70;;;4.30;73.70;;;;;;5013876;28;20411;-26
2021/12/19 11:17:02;;;;;;;13.27;7.38;;;4.30;73.60;;;;;;5014010;28;20038;-25
2021/12/19 11:19:29;;;;;;;26.02;12.75;;;4.30;73.40;;;;;;5014560;28;20068;-25
2021/12/19 11:21:55;;;;;;;12.27;6.90;;;4.40;73.60;;;;;;5013909;28;20022;-25
2021/12/19 11:24:23;;;;;;;34.17;11.43;;;4.40;73.60;;;;;;5013658;28;20048;-25
2021/12/19 11:27:01;;;;;;;10.38;6.55;;;4.40;73.50;;;;;;5013808;28;20034;-26
2021/12/19 11:29:28;;;;;;;11.95;6.57;;;4.50;73.60;;;;;;5014227;28;20030;-25
2021/12/19 11:32:00;;;;;;;28.60;10.98;;;4.50;73.60;;;;;;5013858;28;20041;-25
2021/12/19 11:34:45;;;;;;;10.52;5.97;;;4.60;73.60;;;;;;5013551;28;20113;-26
2021/12/19 11:37:18;;;;;;;24.83;8.35;;;4.60;73.60;;;;;;5013606;28;20030;-26
2021/12/19 11:39:51;;;;;;;21.58;10.38;;;4.80;73.50;;;;;;5013666;28;20030;-26
2021/12/19 11:42:21;;;;;;;24.73;12.73;;;4.90;73.40;;;;;;5014242;28;20033;-25
2021/12/19 11:45:18;;;;;;;34.58;14.82;;;4.90;73.30;;;;;;5013733;28;20034;-25
2021/12/19 11:47:54;;;;;;;19.10;9.48;;;5.00;73.20;;;;;;5013401;28;20109;-24
2021/12/19 11:50:25;;;;;;;46.10;19.08;;;5.00;73.10;;;;;;5021424;28;20038;-25
2021/12/19 11:52:57;;;;;;;28.45;14.35;;;5.00;73.10;;;;;;5035198;28;20056;-26
2021/12/19 11:55:32;;;;;;;35.13;15.15;;;5.00;73.00;;;;;;5035119;28;20033;-25
2021/12/19 11:58:07;;;;;;;33.92;15.43;;;5.10;73.00;;;;;;5035105;28;20448;-25
2021/12/19 12:00:37;;;;;;;32.42;15.65;;;5.10;73.10;;;;;;5035111;28;20033;-26
2021/12/19 12:03:11;;;;;;;30.52;14.90;;;5.10;73.10;;;;;;5034957;28;20029;-25
2021/12/19 12:05:43;;;;;;;24.10;13.13;;;5.10;73.10;;;;;;5034743;28;20116;-26
2021/12/19 12:08:13;;;;;;;23.58;11.73;;;5.10;73.00;;;;;;5035258;28;20025;-26
2021/12/19 12:10:48;;;;;;;29.20;13.27;;;5.20;73.10;;;;;;5035689;28;20104;-25
2021/12/19 12:13:30;;;;;;;20.92;10.40;;;5.20;73.00;;;;;;5034780;28;20040;-25
2021/12/19 12:16:24;;;;;;;21.88;12.60;;;5.10;73.00;;;;;;5034773;28;20172;-26
2021/12/19 12:19:03;;;;;;;30.60;16.17;;;5.20;73.10;;;;;;5034732;28;20033;-26
2021/12/19 12:21:39;;;;;;;16.80;9.32;;;5.20;73.20;;;;;;5034517;28;20770;-26
2021/12/19 12:24:17;;;;;;;38.53;15.93;;;5.20;73.10;;;;;;5034586;28;20029;-25
2021/12/19 12:26:57;;;;;;;41.65;17.23;;;5.20;73.20;;;;;;5035169;28;20034;-24
2021/12/19 12:29:24;;;;;;;12.25;7.88;;;5.20;73.20;;;;;;5034786;28;20473;-25
2021/12/19 12:31:52;;;;;;;25.13;15.20;;;5.20;73.20;;;;;;5034751;28;20030;-25
2021/12/19 12:34:19;;;;;;;31.70;17.27;;;5.20;73.30;;;;;;5034283;28;20021;-25
2021/12/19 12:36:46;;;;;;;14.98;9.23;;;5.30;73.30;;;;;;5034251;28;20389;-25
2021/12/19 12:39:19;;;;;;;30.60;15.25;;;5.30;73.30;;;;;;5034586;28;20025;-25
2021/12/19 12:44:16;;;;;;;31.70;16.20;;;5.30;73.30;;;;;;5034594;28;20041;-26
2021/12/19 12:46:44;;;;;;;28.67;16.17;;;5.30;73.20;;;;;;5034301;28;20037;-26
2021/12/19 12:49:34;;;;;;;39.28;19.05;;;5.30;73.40;;;;;;5033322;28;20096;-24
2021/12/19 12:52:04;;;;;;;11.55;6.40;;;5.40;73.30;;;;;;5034326;28;20025;-26
2021/12/19 12:54:36;;;;;;;22.45;10.80;;;5.40;73.10;;;;;;5033332;28;20498;-25
2021/12/19 12:57:14;;;;;;;11.32;6.57;;;5.40;73.10;;;;;;5034022;28;20496;-26
2021/12/19 12:59:42;;;;;;;22.20;12.13;;;5.50;73.00;;;;;;5033982;28;20473;-25
2021/12/19 13:04:43;;;;;;;38.05;16.38;;;5.50;72.90;;;;;;5033825;28;20033;-25
2021/12/19 13:07:15;;;;;;;35.70;15.35;;;5.50;72.90;;;;;;5033922;28;20048;-25
2021/12/19 13:09:49;;;;;;;37.33;16.20;;;5.40;72.90;;;;;;5034324;28;20072;-25
2021/12/19 13:12:26;;;;;;;15.25;9.02;;;5.40;72.90;;;;;;5033877;28;20029;-25
2021/12/19 13:14:56;;;;;;;34.25;13.82;;;5.40;72.90;;;;;;5033639;28;20041;-26
2021/12/19 13:17:32;;;;;;;30.88;13.55;;;5.30;73.00;;;;;;5033556;28;20564;-25
2021/12/19 13:20:02;;;;;;;23.55;13.27;;;5.30;73.00;;;;;;5034216;28;20585;-26
2021/12/19 13:22:30;;;;;;;38.03;18.00;;;5.30;73.20;;;;;;5033536;28;20071;-26
2021/12/19 13:25:11;;;;;;;36.03;16.05;;;5.20;73.30;;;;;;5033462;28;20421;-25
2021/12/19 13:27:41;;;;;;;49.28;20.77;;;5.20;73.30;;;;;;5033661;28;20114;-25
2021/12/19 13:30:12;;;;;;;35.30;15.68;;;5.20;73.50;;;;;;5033424;28;20479;-25
2021/12/19 13:32:42;;;;;;;46.95;20.42;;;5.10;73.60;;;;;;5033740;28;20029;-25
2021/12/19 13:35:30;;;;;;;24.45;12.98;;;5.10;73.70;;;;;;5032818;28;20021;-25
2021/12/19 13:38:06;;;;;;;23.52;11.80;;;5.00;73.90;;;;;;5033313;28;20037;-25
2021/12/19 13:40:34;;;;;;;47.45;18.10;;;5.00;73.90;;;;;;5033800;28;20452;-24
2021/12/19 13:43:05;;;;;;;29.48;15.13;;;5.00;74.20;;;;;;5033617;28;20500;-25
2021/12/19 13:45:44;;;;;;;14.68;8.43;;;4.90;74.10;;;;;;5033160;28;20033;-26
2021/12/19 13:48:14;;;;;;;21.80;11.45;;;4.90;74.10;;;;;;5033353;28;20509;-25
2021/12/19 13:50:47;;;;;;;21.88;12.63;;;4.90;74.20;;;;;;5034081;28;20102;-26
2021/12/19 13:53:15;;;;;;;19.38;10.65;;;4.90;74.20;;;;;;5033412;28;20041;-25
2021/12/19 13:55:49;;;;;;;26.90;14.00;;;4.80;74.30;;;;;;5033074;28;20137;-25
2021/12/19 13:58:17;;;;;;;19.83;10.73;;;4.80;74.30;;;;;;5033382;28;20040;-25
2021/12/19 14:00:47;;;;;;;24.02;12.63;;;4.90;74.30;;;;;;5033072;28;20508;-25
2021/12/19 14:03:13;;;;;;;11.23;6.53;;;4.90;74.30;;;;;;5031768;28;20380;-25
2021/12/19 14:05:48;;;;;;;37.30;16.42;;;4.90;74.30;;;;;;5032815;28;20108;-25
2021/12/19 14:08:21;;;;;;;28.17;14.35;;;5.00;74.30;;;;;;5032844;28;20120;-25
2021/12/19 14:11:02;;;;;;;40.85;18.60;;;5.00;74.20;;;;;;5033305;28;20032;-25
2021/12/19 14:13:36;;;;;;;29.98;16.23;;;5.10;74.20;;;;;;5032977;28;20075;-25
2021/12/19 14:16:06;;;;;;;16.55;7.70;;;5.10;74.20;;;;;;5033195;28;20544;-26
2021/12/19 14:18:40;;;;;;;19.70;10.48;;;5.10;74.10;;;;;;5031452;28;20030;-25
2021/12/19 14:21:38;;;;;;;35.03;14.80;;;5.10;74.00;;;;;;5033668;28;20034;-26
2021/12/19 14:24:35;;;;;;;29.55;13.63;;;5.10;74.00;;;;;;5032833;28;20021;-26
2021/12/19 14:27:20;;;;;;;29.08;15.38;;;5.10;74.10;;;;;;5032761;28;20057;-26
2021/12/19 14:29:49;;;;;;;37.28;14.27;;;5.10;74.10;;;;;;5033147;28;20021;-26
2021/12/19 14:32:20;;;;;;;25.83;12.68;;;5.00;74.00;;;;;;5032582;28;20030;-25
2021/12/19 14:34:56;;;;;;;29.48;14.55;;;5.00;74.00;;;;;;5032818;28;20029;-25
2021/12/19 14:37:32;;;;;;;37.63;17.98;;;5.00;74.00;;;;;;5033005;28;20034;-25
2021/12/19 14:40:04;;;;;;;29.70;14.68;;;4.90;74.20;;;;;;5033640;28;20040;-24
2021/12/19 14:42:39;;;;;;;43.67;18.70;;;4.90;74.30;;;;;;5032336;28;20095;-26
2021/12/19 14:45:09;;;;;;;19.85;10.65;;;4.80;74.30;;;;;;5033079;28;20144;-25
2021/12/19 14:47:45;;;;;;;55.78;25.15;;;4.80;74.20;;;;;;5033488;28;20033;-26
2021/12/19 14:50:18;;;;;;;18.75;10.38;;;4.70;74.30;;;;;;5036544;28;20030;-25
2021/12/19 14:52:58;;;;;;;27.75;14.63;;;4.70;74.40;;;;;;5036801;28;20037;-26
2021/12/19 14:55:29;;;;;;;24.25;11.30;;;4.60;74.50;;;;;;5036533;28;20362;-26
2021/12/19 14:57:55;;;;;;;24.70;12.15;;;4.60;74.50;;;;;;5036188;28;20021;-25
2021/12/19 15:00:23;;;;;;;41.13;18.38;;;4.60;74.60;;;;;;5036269;28;20033;-26